createdAt,value
2022-08-21T00:00:23.949Z,19.80
2022-08-21T00:03:05.466Z,19.70
2022-08-21T00:05:38.297Z,19.70
2022-08-21T00:08:06.202Z,19.70
2022-08-21T00:10:34.184Z,19.70
2022-08-21T00:13:04.573Z,19.60
2022-08-21T00:15:35.709Z,19.70
2022-08-21T00:18:07.285Z,19.60
2022-08-21T00:20:36.482Z,19.60
2022-08-21T00:23:03.453Z,19.60
2022-08-21T00:25:30.687Z,19.60
2022-08-21T00:27:58.663Z,19.50
2022-08-21T00:30:27.426Z,19.50
2022-08-21T00:32:56.234Z,19.60
2022-08-21T00:35:29.041Z,19.50
2022-08-21T00:37:57.469Z,19.50
2022-08-21T00:40:36.050Z,19.50
2022-08-21T00:43:06.840Z,19.50
2022-08-21T00:45:35.128Z,19.50
2022-08-21T00:48:02.935Z,19.40
2022-08-21T00:50:35.664Z,19.50
2022-08-21T00:53:06.674Z,19.50
2022-08-21T00:55:35.388Z,19.50
2022-08-21T00:58:04.945Z,19.50
2022-08-21T01:00:34.926Z,19.40
2022-08-21T01:03:09.058Z,19.50
2022-08-21T01:05:38.926Z,19.40
2022-08-21T01:08:08.426Z,19.40
2022-08-21T01:10:38.004Z,19.40
2022-08-21T01:13:08.931Z,19.40
2022-08-21T01:15:40.406Z,19.40
2022-08-21T01:18:10.997Z,19.40
2022-08-21T01:20:42.008Z,19.40
2022-08-21T01:23:09.851Z,19.40
2022-08-21T01:25:37.771Z,19.40
2022-08-21T01:28:14.762Z,19.40
2022-08-21T01:30:44.326Z,19.40
2022-08-21T01:33:12.075Z,19.40
2022-08-21T01:35:39.669Z,19.40
2022-08-21T01:38:07.349Z,19.30
2022-08-21T01:40:36.117Z,19.40
2022-08-21T01:43:04.405Z,19.40
2022-08-21T01:45:31.910Z,19.40
2022-08-21T01:47:59.547Z,19.40
2022-08-21T01:50:27.877Z,19.40
2022-08-21T01:52:55.670Z,19.40
2022-08-21T01:55:23.795Z,19.30
2022-08-21T01:57:51.684Z,19.30
2022-08-21T02:00:23.804Z,19.30
2022-08-21T02:02:52.301Z,19.30
2022-08-21T02:05:20.477Z,19.30
2022-08-21T02:07:51.554Z,19.20
2022-08-21T02:10:24.308Z,19.20
2022-08-21T02:12:52.114Z,19.20
2022-08-21T02:15:20.478Z,19.20
2022-08-21T02:17:51.189Z,19.20
2022-08-21T02:20:32.342Z,19.20
2022-08-21T02:23:00.175Z,19.20
2022-08-21T02:25:29.751Z,19.10
2022-08-21T02:27:59.599Z,19.10
2022-08-21T02:30:35.490Z,19.10
2022-08-21T02:33:03.041Z,19.20
2022-08-21T02:35:30.961Z,19.10
2022-08-21T02:38:02.886Z,19.10
2022-08-21T02:40:33.486Z,19.10
2022-08-21T02:43:02.153Z,19.10
2022-08-21T02:45:30.558Z,19.00
2022-08-21T02:48:04.553Z,19.00
2022-08-21T02:50:35.613Z,19.00
2022-08-21T02:53:04.049Z,19.00
2022-08-21T02:55:34.865Z,19.00
2022-08-21T02:58:05.185Z,18.90
2022-08-21T03:00:35.157Z,18.90
2022-08-21T03:03:06.646Z,18.90
2022-08-21T03:05:35.870Z,18.90
2022-08-21T03:08:05.086Z,18.90
2022-08-21T03:10:32.841Z,18.90
2022-08-21T03:13:01.085Z,18.80
2022-08-21T03:15:29.333Z,18.80
2022-08-21T03:17:57.465Z,18.80
2022-08-21T03:20:28.394Z,18.80
2022-08-21T03:22:56.567Z,18.80
2022-08-21T03:25:39.892Z,18.70
2022-08-21T03:28:18.122Z,18.70
2022-08-21T03:30:48.192Z,18.60
2022-08-21T03:33:20.620Z,18.60
2022-08-21T03:36:04.543Z,18.60
2022-08-21T03:38:34.051Z,18.60
2022-08-21T03:41:01.644Z,18.60
2022-08-21T03:43:31.161Z,18.60
2022-08-21T03:46:01.872Z,18.60
2022-08-21T03:48:31.361Z,18.60
2022-08-21T03:50:59.847Z,18.50
2022-08-21T03:53:29.222Z,18.60
2022-08-21T03:55:57.526Z,18.60
2022-08-21T03:58:28.584Z,18.60
2022-08-21T04:01:00.211Z,18.50
2022-08-21T04:03:29.824Z,18.50
2022-08-21T04:05:58.263Z,18.50
2022-08-21T04:08:27.175Z,18.50
2022-08-21T04:10:57.786Z,18.50
2022-08-21T04:13:27.711Z,18.50
2022-08-21T04:15:56.691Z,18.40
2022-08-21T04:18:25.736Z,18.30
2022-08-21T04:20:56.980Z,18.30
2022-08-21T04:23:26.905Z,18.20
2022-08-21T04:25:56.614Z,18.20
2022-08-21T04:28:28.848Z,18.10
2022-08-21T04:30:58.882Z,18.10
2022-08-21T04:33:26.912Z,18.10
2022-08-21T04:35:54.628Z,18.10
2022-08-21T04:38:22.827Z,18.00
2022-08-21T04:40:52.473Z,18.00
2022-08-21T04:43:22.449Z,18.00
2022-08-21T04:45:51.997Z,18.00
2022-08-21T04:48:22.141Z,18.00
2022-08-21T04:51:03.901Z,18.00
2022-08-21T04:53:37.478Z,18.00
2022-08-21T04:56:40.095Z,17.90
2022-08-21T04:59:17.103Z,18.00
2022-08-21T05:01:45.901Z,18.00
2022-08-21T05:04:16.586Z,18.10
2022-08-21T05:06:47.966Z,18.10
2022-08-21T05:09:17.362Z,18.10
2022-08-21T05:11:45.922Z,18.10
2022-08-21T05:14:14.120Z,18.20
2022-08-21T05:16:42.834Z,18.20
2022-08-21T05:19:11.155Z,18.20
2022-08-21T05:21:43.397Z,18.10
2022-08-21T05:24:12.426Z,18.20
2022-08-21T05:26:45.961Z,18.10
2022-08-21T05:29:18.285Z,18.20
2022-08-21T05:31:47.979Z,18.20
2022-08-21T05:34:19.964Z,18.20
2022-08-21T05:36:47.839Z,18.20
2022-08-21T05:39:16.100Z,18.20
2022-08-21T05:41:43.749Z,18.30
2022-08-21T05:44:11.473Z,18.30
2022-08-21T05:46:39.433Z,18.30
2022-08-21T05:49:07.484Z,18.30
2022-08-21T05:51:34.490Z,18.40
2022-08-21T05:54:02.203Z,18.40
2022-08-21T05:56:29.982Z,18.40
2022-08-21T05:58:57.661Z,18.40
2022-08-21T06:01:25.559Z,18.50
2022-08-21T06:03:53.849Z,18.50
2022-08-21T06:06:24.847Z,18.60
2022-08-21T06:08:54.099Z,18.60
2022-08-21T06:11:26.961Z,18.60
2022-08-21T06:13:56.525Z,18.60
2022-08-21T06:16:25.104Z,18.60
2022-08-21T06:18:53.021Z,18.70
2022-08-21T06:21:22.645Z,18.70
2022-08-21T06:23:50.278Z,18.60
2022-08-21T06:26:18.660Z,18.60
2022-08-21T06:28:46.310Z,18.60
2022-08-21T06:31:17.098Z,18.60
2022-08-21T06:33:44.841Z,18.60
2022-08-21T06:36:12.450Z,18.60
2022-08-21T06:38:40.503Z,18.60
2022-08-21T06:41:08.630Z,18.60
2022-08-21T06:43:39.455Z,18.70
2022-08-21T06:46:08.990Z,18.70
2022-08-21T06:48:36.078Z,18.70
2022-08-21T06:51:03.848Z,18.80
2022-08-21T06:53:34.650Z,18.70
2022-08-21T06:56:04.584Z,18.70
2022-08-21T06:58:33.144Z,18.80
2022-08-21T07:01:03.939Z,18.80
2022-08-21T07:03:38.321Z,18.80
2022-08-21T07:06:08.024Z,18.80
2022-08-21T07:08:36.135Z,18.90
2022-08-21T07:11:09.692Z,18.80
2022-08-21T07:13:38.323Z,18.80
2022-08-21T07:16:05.464Z,18.90
2022-08-21T07:18:33.468Z,18.90
2022-08-21T07:21:04.629Z,18.90
2022-08-21T07:23:45.977Z,19.00
2022-08-21T07:26:18.858Z,19.00
2022-08-21T07:28:46.556Z,19.00
2022-08-21T07:31:19.230Z,19.00
2022-08-21T07:33:47.889Z,18.90
2022-08-21T07:36:18.404Z,18.90
2022-08-21T07:38:46.305Z,18.90
2022-08-21T07:41:26.778Z,18.90
2022-08-21T07:43:54.603Z,18.90
2022-08-21T07:46:22.918Z,18.90
2022-08-21T07:48:50.775Z,18.90
2022-08-21T07:51:26.419Z,18.90
2022-08-21T07:53:56.432Z,18.90
2022-08-21T07:56:24.230Z,18.90
2022-08-21T07:58:52.233Z,18.90
2022-08-21T08:01:20.977Z,19.00
2022-08-21T08:03:50.681Z,19.00
2022-08-21T08:06:19.711Z,19.00
2022-08-21T08:08:47.570Z,19.00
2022-08-21T08:11:18.110Z,19.10
2022-08-21T08:13:49.782Z,19.10
2022-08-21T08:16:19.834Z,19.10
2022-08-21T08:18:46.865Z,19.10
2022-08-21T08:21:16.037Z,19.20
2022-08-21T08:23:46.091Z,19.30
2022-08-21T08:26:16.672Z,19.30
2022-08-21T08:28:44.937Z,19.30
2022-08-21T08:31:12.515Z,19.30
2022-08-21T08:33:40.683Z,19.40
2022-08-21T08:36:18.329Z,19.40
2022-08-21T08:38:48.394Z,19.40
2022-08-21T08:41:23.760Z,19.40
2022-08-21T08:44:00.788Z,19.50
2022-08-21T08:46:41.489Z,19.50
2022-08-21T08:49:16.049Z,19.50
2022-08-21T08:52:04.401Z,19.60
2022-08-21T08:54:38.979Z,19.60
2022-08-21T08:57:24.616Z,19.60
2022-08-21T08:59:58.981Z,19.60
2022-08-21T09:02:30.654Z,19.50
2022-08-21T09:05:00.590Z,19.50
2022-08-21T09:07:39.995Z,19.50
2022-08-21T09:10:13.786Z,19.50
2022-08-21T09:12:53.949Z,19.60
2022-08-21T09:15:34.401Z,19.60
2022-08-21T09:18:30.849Z,19.70
2022-08-21T09:21:28.786Z,19.70
2022-08-21T09:24:02.292Z,19.70
2022-08-21T09:26:38.758Z,19.80
2022-08-21T09:29:11.811Z,19.90
2022-08-21T09:31:39.454Z,19.80
2022-08-21T09:34:10.710Z,19.90
2022-08-21T09:36:42.264Z,19.90
2022-08-21T09:39:11.267Z,19.90
2022-08-21T09:41:40.573Z,19.90
2022-08-21T09:44:09.422Z,20.00
2022-08-21T09:46:38.967Z,20.00
2022-08-21T09:49:10.379Z,20.10
2022-08-21T09:51:52.835Z,20.10
2022-08-21T09:54:25.816Z,20.20
2022-08-21T09:57:19.304Z,20.40
2022-08-21T09:59:48.046Z,20.50
2022-08-21T10:02:34.380Z,20.50
2022-08-21T10:05:04.006Z,20.50
2022-08-21T10:07:33.230Z,20.50
2022-08-21T10:10:10.714Z,20.50
2022-08-21T10:12:54.129Z,20.40
2022-08-21T10:15:46.780Z,20.50
2022-08-21T10:18:24.034Z,20.50
2022-08-21T10:21:14.713Z,20.50
2022-08-21T10:24:04.610Z,20.50
2022-08-21T10:26:46.398Z,20.50
2022-08-21T10:29:54.946Z,20.60
2022-08-21T10:32:53.708Z,20.80
2022-08-21T10:35:21.909Z,20.90
2022-08-21T10:38:50.377Z,21.10
2022-08-21T10:41:37.815Z,21.20
2022-08-21T10:44:05.457Z,21.30
2022-08-21T10:46:38.781Z,21.40
2022-08-21T10:49:23.285Z,21.40
2022-08-21T10:52:27.062Z,21.40
2022-08-21T10:55:00.954Z,21.30
2022-08-21T10:57:47.220Z,21.40
2022-08-21T11:00:38.785Z,21.50
2022-08-21T11:03:30.158Z,21.60
2022-08-21T11:06:26.332Z,21.60
2022-08-21T11:09:18.328Z,21.60
2022-08-21T11:11:59.569Z,21.60
2022-08-21T11:14:59.282Z,21.80
2022-08-21T11:17:59.193Z,21.90
2022-08-21T11:20:42.636Z,22.00
2022-08-21T11:23:30.402Z,22.00
2022-08-21T11:26:16.809Z,22.00
2022-08-21T11:28:52.110Z,22.10
2022-08-21T11:31:45.869Z,22.20
2022-08-21T11:34:27.056Z,22.20
2022-08-21T11:37:10.015Z,22.30
2022-08-21T11:39:47.377Z,22.50
2022-08-21T11:42:24.653Z,22.70
2022-08-21T11:45:16.938Z,22.80
2022-08-21T11:48:28.945Z,22.90
2022-08-21T11:50:58.811Z,22.90
2022-08-21T11:53:33.796Z,22.80
2022-08-21T11:56:18.807Z,22.80
2022-08-21T11:58:52.213Z,22.70
2022-08-21T12:01:34.338Z,22.70
2022-08-21T12:04:17.697Z,22.80
2022-08-21T12:06:50.329Z,22.90
2022-08-21T12:09:24.626Z,22.80
2022-08-21T12:12:06.438Z,22.80
2022-08-21T12:14:40.654Z,22.80
2022-08-21T12:17:12.168Z,22.90
2022-08-21T12:19:41.424Z,22.90
2022-08-21T12:22:14.735Z,22.90
2022-08-21T12:25:03.963Z,23.00
2022-08-21T12:27:43.265Z,22.80
2022-08-21T12:30:46.082Z,22.80
2022-08-21T12:33:25.807Z,22.70
2022-08-21T12:36:11.778Z,22.80
2022-08-21T12:38:42.778Z,22.80
2022-08-21T12:41:21.296Z,22.80
2022-08-21T12:43:57.378Z,22.80
2022-08-21T12:46:51.273Z,22.90
2022-08-21T12:49:37.160Z,22.90
2022-08-21T12:52:13.937Z,23.00
2022-08-21T12:54:44.107Z,23.00
2022-08-21T12:57:20.887Z,23.10
2022-08-21T13:00:03.652Z,23.00
2022-08-21T13:02:43.873Z,23.00
2022-08-21T13:05:24.733Z,23.00
2022-08-21T13:07:52.400Z,22.90
2022-08-21T13:10:22.885Z,23.00
2022-08-21T13:12:54.318Z,22.90
2022-08-21T13:15:35.090Z,22.90
2022-08-21T13:18:04.455Z,22.90
2022-08-21T13:20:39.370Z,22.90
2022-08-21T13:23:26.749Z,22.80
2022-08-21T13:25:55.626Z,22.90
2022-08-21T13:28:24.269Z,22.90
2022-08-21T13:30:54.929Z,22.90
2022-08-21T13:33:36.434Z,22.90
2022-08-21T13:36:12.115Z,22.90
2022-08-21T13:38:43.314Z,23.00
2022-08-21T13:41:22.710Z,23.10
2022-08-21T13:44:05.130Z,23.10
2022-08-21T13:46:36.677Z,23.30
2022-08-21T13:49:07.365Z,23.60
2022-08-21T13:51:37.047Z,23.80
2022-08-21T13:54:24.427Z,23.70
2022-08-21T13:56:52.936Z,23.90
2022-08-21T13:59:31.620Z,23.90
2022-08-21T14:02:09.136Z,23.90
2022-08-21T14:04:44.965Z,24.10
2022-08-21T14:07:27.744Z,24.10
2022-08-21T14:09:55.909Z,24.20
2022-08-21T14:12:33.885Z,24.20
2022-08-21T14:15:05.998Z,24.30
2022-08-21T14:17:38.566Z,24.30
2022-08-21T14:20:08.506Z,24.30
2022-08-21T14:22:42.501Z,24.30
2022-08-21T14:25:19.982Z,24.20
2022-08-21T14:28:19.586Z,24.20
2022-08-21T14:30:51.549Z,24.30
2022-08-21T14:33:34.078Z,24.40
2022-08-21T14:36:03.324Z,24.40
2022-08-21T14:38:31.400Z,24.40
2022-08-21T14:41:01.625Z,24.60
2022-08-21T14:43:30.545Z,24.60
2022-08-21T14:45:58.826Z,24.60
2022-08-21T14:48:26.392Z,24.70
2022-08-21T14:50:59.769Z,24.70
2022-08-21T14:53:28.217Z,24.80
2022-08-21T14:56:05.607Z,24.80
2022-08-21T14:58:39.038Z,24.70
2022-08-21T15:01:12.661Z,24.70
2022-08-21T15:03:41.137Z,24.70
2022-08-21T15:06:10.394Z,24.90
2022-08-21T15:08:39.115Z,24.90
2022-08-21T15:11:12.390Z,24.90
2022-08-21T15:13:42.176Z,24.90
2022-08-21T15:16:12.097Z,24.80
2022-08-21T15:18:41.391Z,24.80
2022-08-21T15:21:09.105Z,24.70
2022-08-21T15:23:40.907Z,24.70
2022-08-21T15:26:11.109Z,24.60
2022-08-21T15:28:39.577Z,24.80
2022-08-21T15:31:08.117Z,24.80
2022-08-21T15:33:35.230Z,24.80
2022-08-21T15:36:03.250Z,24.80
2022-08-21T15:38:31.582Z,24.60
2022-08-21T15:41:00.644Z,24.50
2022-08-21T15:43:36.301Z,24.50
2022-08-21T15:46:03.910Z,24.30
2022-08-21T15:48:32.191Z,24.10
2022-08-21T15:50:59.739Z,24.00
2022-08-21T15:53:27.405Z,23.90
2022-08-21T15:55:56.954Z,23.80
2022-08-21T15:58:24.807Z,23.60
2022-08-21T16:00:52.362Z,23.50
2022-08-21T16:03:22.887Z,23.30
2022-08-21T16:05:53.446Z,23.20
2022-08-21T16:08:22.457Z,23.10
2022-08-21T16:10:53.006Z,23.20
2022-08-21T16:13:30.050Z,23.20
2022-08-21T16:15:57.669Z,23.20
2022-08-21T16:18:26.641Z,23.20
2022-08-21T16:20:54.525Z,23.10
2022-08-21T16:23:22.926Z,23.00
2022-08-21T16:25:51.529Z,22.90
2022-08-21T16:28:21.781Z,22.90
2022-08-21T16:30:51.209Z,22.90
2022-08-21T16:33:33.334Z,22.80
2022-08-21T16:36:02.757Z,22.80
2022-08-21T16:38:30.166Z,22.80
2022-08-21T16:40:57.902Z,22.80
2022-08-21T16:43:28.493Z,22.90
2022-08-21T16:45:57.934Z,22.90
2022-08-21T16:48:26.205Z,22.90
2022-08-21T16:50:53.127Z,22.80
2022-08-21T16:53:21.662Z,22.70
2022-08-21T16:55:52.697Z,22.70
2022-08-21T16:58:30.349Z,22.70
2022-08-21T17:01:01.553Z,22.50
2022-08-21T17:03:36.461Z,22.40
2022-08-21T17:06:04.245Z,22.30
2022-08-21T17:08:32.986Z,22.20
2022-08-21T17:11:01.811Z,22.10
2022-08-21T17:13:30.742Z,22.00
2022-08-21T17:15:59.353Z,21.90
2022-08-21T17:18:28.088Z,21.80
2022-08-21T17:20:56.959Z,21.70
2022-08-21T17:23:24.770Z,21.60
2022-08-21T17:25:54.606Z,21.60
2022-08-21T17:28:25.669Z,21.60
2022-08-21T17:30:58.289Z,21.40
2022-08-21T17:33:29.230Z,21.40
2022-08-21T17:35:56.203Z,21.30
2022-08-21T17:38:24.625Z,21.30
2022-08-21T17:40:55.805Z,21.30
2022-08-21T17:43:23.520Z,21.20
2022-08-21T17:45:51.862Z,21.10
2022-08-21T17:48:19.469Z,21.20
2022-08-21T17:50:53.240Z,21.10
2022-08-21T17:53:22.228Z,21.00
2022-08-21T17:55:51.761Z,21.00
2022-08-21T17:58:19.494Z,20.90
2022-08-21T18:00:48.661Z,20.80
2022-08-21T18:03:20.401Z,20.70
2022-08-21T18:05:50.642Z,20.70
2022-08-21T18:08:18.970Z,20.50
2022-08-21T18:10:48.701Z,20.60
2022-08-21T18:13:26.714Z,20.60
2022-08-21T18:15:55.794Z,20.60
2022-08-21T18:18:25.308Z,20.60
2022-08-21T18:20:53.706Z,20.60
2022-08-21T18:23:20.645Z,20.60
2022-08-21T18:26:08.458Z,20.60
2022-08-21T18:28:38.603Z,20.60
2022-08-21T18:31:09.234Z,20.60
2022-08-21T18:33:38.786Z,20.50
2022-08-21T18:36:07.410Z,20.50
2022-08-21T18:38:39.121Z,20.50
2022-08-21T18:41:10.503Z,20.50
2022-08-21T18:43:38.818Z,20.50
2022-08-21T18:46:06.586Z,20.40
2022-08-21T18:48:34.345Z,20.40
2022-08-21T18:51:02.237Z,20.40
2022-08-21T18:53:29.457Z,20.40
2022-08-21T18:55:57.893Z,20.30
2022-08-21T18:58:34.101Z,20.30
2022-08-21T19:01:01.977Z,20.30
2022-08-21T19:03:29.278Z,20.30
2022-08-21T19:05:57.892Z,20.30
2022-08-21T19:08:28.751Z,20.20
2022-08-21T19:10:58.608Z,20.20
2022-08-21T19:13:28.462Z,20.20
2022-08-21T19:15:56.639Z,20.20
2022-08-21T19:18:28.338Z,20.10
2022-08-21T19:20:57.398Z,20.10
2022-08-21T19:26:16.477Z,20.00
2022-08-21T19:28:49.992Z,20.00
2022-08-21T19:31:25.736Z,20.00
2022-08-21T19:34:01.589Z,20.00
2022-08-21T19:36:31.603Z,20.00
2022-08-21T19:39:00.307Z,19.90
2022-08-21T19:41:33.653Z,19.90
2022-08-21T19:44:04.530Z,19.90
2022-08-21T19:46:35.329Z,19.80
2022-08-21T19:49:06.971Z,19.80
2022-08-21T19:51:36.098Z,19.70
2022-08-21T19:54:04.234Z,19.70
2022-08-21T19:59:24.991Z,19.60
2022-08-21T20:02:17.299Z,19.60
2022-08-21T20:07:35.496Z,19.50
2022-08-21T20:10:03.665Z,19.50
2022-08-21T20:12:32.244Z,19.50
2022-08-21T20:14:59.873Z,19.50
2022-08-21T20:17:27.798Z,19.50
2022-08-21T20:22:43.341Z,19.40
2022-08-21T20:25:10.455Z,19.40
2022-08-21T20:27:40.340Z,19.30
2022-08-21T20:30:10.727Z,19.30
2022-08-21T20:32:39.175Z,19.30
2022-08-21T20:35:12.458Z,19.30
2022-08-21T20:37:41.246Z,19.30
2022-08-21T20:40:12.373Z,19.30
2022-08-21T20:45:33.224Z,19.30
2022-08-21T20:48:15.675Z,19.20
2022-08-21T20:50:55.290Z,19.20
2022-08-21T20:54:06.509Z,19.20
2022-08-21T20:56:50.052Z,19.20
2022-08-21T20:59:16.992Z,19.20
2022-08-21T21:01:48.166Z,19.20
2022-08-21T21:04:27.750Z,19.20
2022-08-21T21:06:58.983Z,19.20
2022-08-21T21:09:41.017Z,19.10
2022-08-21T21:12:17.032Z,19.20
2022-08-21T21:14:50.355Z,19.10
2022-08-21T21:17:26.801Z,19.10
2022-08-21T21:20:20.786Z,19.10
2022-08-21T21:22:55.122Z,19.10
2022-08-21T21:25:39.969Z,19.00
2022-08-21T21:28:25.662Z,19.00
2022-08-21T21:30:57.639Z,19.00
2022-08-21T21:33:25.812Z,19.00
2022-08-21T21:36:02.815Z,18.90
2022-08-21T21:38:53.777Z,18.90
2022-08-21T21:41:54.374Z,19.00
2022-08-21T21:44:43.583Z,18.90
2022-08-21T21:47:15.323Z,18.90
2022-08-21T21:49:50.142Z,18.90
2022-08-21T21:52:17.834Z,18.90
2022-08-21T21:55:03.126Z,18.90
2022-08-21T21:57:45.524Z,18.90
2022-08-21T22:00:24.381Z,18.90
2022-08-21T22:03:19.001Z,18.90
2022-08-21T22:06:09.075Z,18.90
2022-08-21T22:09:10.511Z,18.80
2022-08-21T22:11:38.885Z,18.90
2022-08-21T22:14:18.758Z,18.80
2022-08-21T22:16:51.578Z,18.80
2022-08-21T22:19:30.759Z,18.80
2022-08-21T22:22:01.395Z,18.80
2022-08-21T22:24:35.462Z,18.80
2022-08-21T22:27:08.958Z,18.80
2022-08-21T22:29:49.439Z,18.70
2022-08-21T22:32:42.798Z,18.70
2022-08-21T22:35:21.761Z,18.70
2022-08-21T22:37:56.614Z,18.70
2022-08-21T22:40:32.548Z,18.70
2022-08-21T22:43:08.142Z,18.70
2022-08-21T22:45:54.326Z,18.70
2022-08-21T22:48:24.906Z,18.60
2022-08-21T22:51:03.676Z,18.70
2022-08-21T22:53:40.629Z,18.60
2022-08-21T22:56:26.748Z,18.60
2022-08-21T22:59:02.101Z,18.60
2022-08-21T23:01:35.930Z,18.60
2022-08-21T23:04:24.977Z,18.60
2022-08-21T23:06:56.290Z,18.60
2022-08-21T23:09:28.204Z,18.60
2022-08-21T23:11:57.672Z,18.50
2022-08-21T23:14:26.218Z,18.50
2022-08-21T23:17:02.057Z,18.50
2022-08-21T23:20:10.047Z,18.50
2022-08-21T23:22:55.795Z,18.50
2022-08-21T23:25:41.545Z,18.50
2022-08-21T23:28:20.976Z,18.50
2022-08-21T23:30:47.942Z,18.50
2022-08-21T23:33:45.385Z,18.50
2022-08-21T23:36:38.565Z,18.50
2022-08-21T23:39:34.221Z,18.40
2022-08-21T23:42:14.055Z,18.40
2022-08-21T23:45:35.668Z,18.40
2022-08-21T23:48:29.431Z,18.40
2022-08-21T23:51:16.369Z,18.40
2022-08-21T23:54:14.881Z,18.40
2022-08-21T23:56:54.314Z,18.40
